sensor_id;sensor_type;location;lat;lon;timestamp;temperature;humidity
16301;DHT22;8258;51.020;4.248;2023-04-25T00:00:03;8.60;99.90
16301;DHT22;8258;51.020;4.248;2023-04-25T00:02:32;8.50;99.90
16301;DHT22;8258;51.020;4.248;2023-04-25T00:05:00;8.60;99.90
16301;DHT22;8258;51.020;4.248;2023-04-25T00:07:27;8.60;99.90
16301;DHT22;8258;51.020;4.248;2023-04-25T00:09:55;8.60;99.90
16301;DHT22;8258;51.020;4.248;2023-04-25T00:12:23;8.50;99.90
16301;DHT22;8258;51.020;4.248;2023-04-25T00:14:49;8.50;99.90
16301;DHT22;8258;51.020;4.248;2023-04-25T00:17:16;8.50;99.90
16301;DHT22;8258;51.020;4.248;2023-04-25T00:19:44;8.40;99.90
16301;DHT22;8258;51.020;4.248;2023-04-25T00:22:11;8.40;99.90
16301;DHT22;8258;51.020;4.248;2023-04-25T00:24:38;8.40;99.90
16301;DHT22;8258;51.020;4.248;2023-04-25T00:27:07;8.40;99.90
16301;DHT22;8258;51.020;4.248;2023-04-25T00:29:34;8.40;99.90
16301;DHT22;8258;51.020;4.248;2023-04-25T00:32:01;8.40;99.90
16301;DHT22;8258;51.020;4.248;2023-04-25T00:34:28;8.40;99.90
16301;DHT22;8258;51.020;4.248;2023-04-25T00:36:55;8.40;99.90
16301;DHT22;8258;51.020;4.248;2023-04-25T00:39:22;8.40;99.90
16301;DHT22;8258;51.020;4.248;2023-04-25T00:41:50;8.40;99.90
16301;DHT22;8258;51.020;4.248;2023-04-25T00:44:21;8.40;99.90
16301;DHT22;8258;51.020;4.248;2023-04-25T00:46:48;8.60;99.90
16301;DHT22;8258;51.020;4.248;2023-04-25T00:49:16;8.50;99.90
16301;DHT22;8258;51.020;4.248;2023-04-25T00:51:43;8.40;99.90
16301;DHT22;8258;51.020;4.248;2023-04-25T00:54:11;8.40;99.90
16301;DHT22;8258;51.020;4.248;2023-04-25T00:56:38;8.30;99.90
16301;DHT22;8258;51.020;4.248;2023-04-25T00:59:06;8.30;99.90
16301;DHT22;8258;51.020;4.248;2023-04-25T01:01:34;8.20;99.90
16301;DHT22;8258;51.020;4.248;2023-04-25T01:04:02;8.20;99.90
16301;DHT22;8258;51.020;4.248;2023-04-25T01:06:29;8.20;99.90
16301;DHT22;8258;51.020;4.248;2023-04-25T01:08:56;8.20;99.90
16301;DHT22;8258;51.020;4.248;2023-04-25T01:11:24;8.20;99.90
16301;DHT22;8258;51.020;4.248;2023-04-25T01:13:51;8.20;99.90
16301;DHT22;8258;51.020;4.248;2023-04-25T01:16:18;8.20;99.90
16301;DHT22;8258;51.020;4.248;2023-04-25T01:18:47;8.30;99.90
16301;DHT22;8258;51.020;4.248;2023-04-25T01:21:17;8.20;99.90
16301;DHT22;8258;51.020;4.248;2023-04-25T01:23:44;8.20;99.90
16301;DHT22;8258;51.020;4.248;2023-04-25T01:26:12;8.20;99.90
16301;DHT22;8258;51.020;4.248;2023-04-25T01:28:40;8.20;99.90
16301;DHT22;8258;51.020;4.248;2023-04-25T01:31:07;8.20;99.90
16301;DHT22;8258;51.020;4.248;2023-04-25T01:33:34;8.10;99.90
16301;DHT22;8258;51.020;4.248;2023-04-25T01:36:01;8.10;99.90
16301;DHT22;8258;51.020;4.248;2023-04-25T01:38:30;8.10;99.90
16301;DHT22;8258;51.020;4.248;2023-04-25T01:40:58;8.20;99.90
16301;DHT22;8258;51.020;4.248;2023-04-25T01:43:25;8.10;99.90
16301;DHT22;8258;51.020;4.248;2023-04-25T01:45:53;8.10;99.90
16301;DHT22;8258;51.020;4.248;2023-04-25T01:48:20;8.10;99.90
16301;DHT22;8258;51.020;4.248;2023-04-25T01:50:47;8.10;99.90
16301;DHT22;8258;51.020;4.248;2023-04-25T01:53:14;8.10;99.90
16301;DHT22;8258;51.020;4.248;2023-04-25T01:55:43;8.10;99.90
16301;DHT22;8258;51.020;4.248;2023-04-25T01:58:10;8.10;99.90
16301;DHT22;8258;51.020;4.248;2023-04-25T02:00:38;8.10;99.90
16301;DHT22;8258;51.020;4.248;2023-04-25T02:03:06;8.00;99.90
16301;DHT22;8258;51.020;4.248;2023-04-25T02:05:37;8.00;99.90
16301;DHT22;8258;51.020;4.248;2023-04-25T02:08:05;8.00;99.90
16301;DHT22;8258;51.020;4.248;2023-04-25T02:10:32;8.00;99.90
16301;DHT22;8258;51.020;4.248;2023-04-25T02:13:01;8.00;99.90
16301;DHT22;8258;51.020;4.248;2023-04-25T02:15:28;8.00;99.90
16301;DHT22;8258;51.020;4.248;2023-04-25T02:17:55;8.00;99.90
16301;DHT22;8258;51.020;4.248;2023-04-25T02:20:23;8.10;99.90
16301;DHT22;8258;51.020;4.248;2023-04-25T02:22:50;8.00;99.90
16301;DHT22;8258;51.020;4.248;2023-04-25T02:25:17;8.00;99.90
16301;DHT22;8258;51.020;4.248;2023-04-25T02:27:46;8.00;99.90
16301;DHT22;8258;51.020;4.248;2023-04-25T02:30:14;8.00;99.90
16301;DHT22;8258;51.020;4.248;2023-04-25T02:32:41;8.00;99.90
16301;DHT22;8258;51.020;4.248;2023-04-25T02:35:09;8.00;99.90
16301;DHT22;8258;51.020;4.248;2023-04-25T02:37:37;7.90;99.90
16301;DHT22;8258;51.020;4.248;2023-04-25T02:40:06;7.90;99.90
16301;DHT22;8258;51.020;4.248;2023-04-25T02:42:34;7.80;99.90
16301;DHT22;8258;51.020;4.248;2023-04-25T02:45:01;7.90;99.90
16301;DHT22;8258;51.020;4.248;2023-04-25T02:47:29;7.90;99.90
16301;DHT22;8258;51.020;4.248;2023-04-25T02:49:56;7.90;99.90
16301;DHT22;8258;51.020;4.248;2023-04-25T02:52:23;7.90;99.90
16301;DHT22;8258;51.020;4.248;2023-04-25T02:54:50;8.00;99.90
16301;DHT22;8258;51.020;4.248;2023-04-25T02:57:17;8.00;99.90
16301;DHT22;8258;51.020;4.248;2023-04-25T02:59:44;8.00;99.90
16301;DHT22;8258;51.020;4.248;2023-04-25T03:02:11;8.00;99.90
16301;DHT22;8258;51.020;4.248;2023-04-25T03:04:39;8.00;99.90
16301;DHT22;8258;51.020;4.248;2023-04-25T03:07:07;7.90;99.90
16301;DHT22;8258;51.020;4.248;2023-04-25T03:09:33;7.90;99.90
16301;DHT22;8258;51.020;4.248;2023-04-25T03:12:00;7.90;99.90
16301;DHT22;8258;51.020;4.248;2023-04-25T03:14:27;7.70;99.90
16301;DHT22;8258;51.020;4.248;2023-04-25T03:16:54;7.70;99.90
16301;DHT22;8258;51.020;4.248;2023-04-25T03:19:21;7.70;99.90
16301;DHT22;8258;51.020;4.248;2023-04-25T03:21:49;7.70;99.90
16301;DHT22;8258;51.020;4.248;2023-04-25T03:24:16;7.70;99.90
16301;DHT22;8258;51.020;4.248;2023-04-25T03:26:43;7.80;99.90
16301;DHT22;8258;51.020;4.248;2023-04-25T03:29:10;7.80;99.90
16301;DHT22;8258;51.020;4.248;2023-04-25T03:31:38;7.70;99.90
16301;DHT22;8258;51.020;4.248;2023-04-25T03:34:05;7.70;99.90
16301;DHT22;8258;51.020;4.248;2023-04-25T03:36:32;7.80;99.90
16301;DHT22;8258;51.020;4.248;2023-04-25T03:39:00;7.80;99.90
16301;DHT22;8258;51.020;4.248;2023-04-25T03:41:27;7.80;99.90
16301;DHT22;8258;51.020;4.248;2023-04-25T03:43:55;7.80;99.90
16301;DHT22;8258;51.020;4.248;2023-04-25T03:46:22;7.70;99.90
16301;DHT22;8258;51.020;4.248;2023-04-25T03:48:49;7.70;99.90
16301;DHT22;8258;51.020;4.248;2023-04-25T03:51:16;7.60;99.90
16301;DHT22;8258;51.020;4.248;2023-04-25T03:53:43;7.60;99.90
16301;DHT22;8258;51.020;4.248;2023-04-25T03:56:11;7.60;99.90
16301;DHT22;8258;51.020;4.248;2023-04-25T03:58:38;7.60;99.90
16301;DHT22;8258;51.020;4.248;2023-04-25T04:01:05;7.50;99.90
16301;DHT22;8258;51.020;4.248;2023-04-25T04:03:33;7.60;99.90
16301;DHT22;8258;51.020;4.248;2023-04-25T04:06:01;7.60;99.90
16301;DHT22;8258;51.020;4.248;2023-04-25T04:08:28;7.60;99.90
16301;DHT22;8258;51.020;4.248;2023-04-25T04:10:55;7.50;99.90
16301;DHT22;8258;51.020;4.248;2023-04-25T04:13:25;7.40;99.90
16301;DHT22;8258;51.020;4.248;2023-04-25T04:15:52;7.30;99.90
16301;DHT22;8258;51.020;4.248;2023-04-25T04:18:19;7.20;99.90
16301;DHT22;8258;51.020;4.248;2023-04-25T04:20:46;7.20;99.90
16301;DHT22;8258;51.020;4.248;2023-04-25T04:23:13;7.20;99.90
16301;DHT22;8258;51.020;4.248;2023-04-25T04:25:40;7.10;99.90
16301;DHT22;8258;51.020;4.248;2023-04-25T04:28:07;7.10;99.90
16301;DHT22;8258;51.020;4.248;2023-04-25T04:30:35;7.10;99.90
16301;DHT22;8258;51.020;4.248;2023-04-25T04:33:03;7.20;99.90
16301;DHT22;8258;51.020;4.248;2023-04-25T04:35:30;7.20;99.90
16301;DHT22;8258;51.020;4.248;2023-04-25T04:37:57;7.20;99.90
16301;DHT22;8258;51.020;4.248;2023-04-25T04:40:24;7.20;99.90
16301;DHT22;8258;51.020;4.248;2023-04-25T04:42:53;7.20;99.90
16301;DHT22;8258;51.020;4.248;2023-04-25T04:45:22;7.30;99.90
16301;DHT22;8258;51.020;4.248;2023-04-25T04:47:50;7.40;99.90
16301;DHT22;8258;51.020;4.248;2023-04-25T04:50:18;7.30;99.90
16301;DHT22;8258;51.020;4.248;2023-04-25T04:52:45;7.30;99.90
16301;DHT22;8258;51.020;4.248;2023-04-25T04:55:12;7.40;99.90
16301;DHT22;8258;51.020;4.248;2023-04-25T04:57:39;7.40;99.90
16301;DHT22;8258;51.020;4.248;2023-04-25T05:00:07;7.40;99.90
16301;DHT22;8258;51.020;4.248;2023-04-25T05:02:37;7.40;99.90
16301;DHT22;8258;51.020;4.248;2023-04-25T05:05:06;7.50;99.90
16301;DHT22;8258;51.020;4.248;2023-04-25T05:07:33;7.60;99.90
16301;DHT22;8258;51.020;4.248;2023-04-25T05:10:00;7.50;99.90
16301;DHT22;8258;51.020;4.248;2023-04-25T05:12:27;7.50;99.90
16301;DHT22;8258;51.020;4.248;2023-04-25T05:14:54;7.60;99.90
16301;DHT22;8258;51.020;4.248;2023-04-25T05:17:21;7.60;99.90
16301;DHT22;8258;51.020;4.248;2023-04-25T05:19:48;7.50;99.90
16301;DHT22;8258;51.020;4.248;2023-04-25T05:22:16;7.50;99.90
16301;DHT22;8258;51.020;4.248;2023-04-25T05:24:43;7.40;99.90
16301;DHT22;8258;51.020;4.248;2023-04-25T05:27:10;7.40;99.90
16301;DHT22;8258;51.020;4.248;2023-04-25T05:29:37;7.50;99.90
16301;DHT22;8258;51.020;4.248;2023-04-25T05:32:05;7.60;99.90
16301;DHT22;8258;51.020;4.248;2023-04-25T05:34:33;7.60;99.90
16301;DHT22;8258;51.020;4.248;2023-04-25T05:37:00;7.70;99.90
16301;DHT22;8258;51.020;4.248;2023-04-25T05:39:28;7.70;99.90
16301;DHT22;8258;51.020;4.248;2023-04-25T05:41:55;7.70;99.90
16301;DHT22;8258;51.020;4.248;2023-04-25T05:44:22;7.70;99.90
16301;DHT22;8258;51.020;4.248;2023-04-25T05:46:49;7.60;99.90
16301;DHT22;8258;51.020;4.248;2023-04-25T05:49:16;7.60;99.90
16301;DHT22;8258;51.020;4.248;2023-04-25T05:51:43;7.50;99.90
16301;DHT22;8258;51.020;4.248;2023-04-25T05:54:10;7.60;99.90
16301;DHT22;8258;51.020;4.248;2023-04-25T05:56:38;7.60;99.90
16301;DHT22;8258;51.020;4.248;2023-04-25T05:59:05;7.70;99.90
16301;DHT22;8258;51.020;4.248;2023-04-25T06:01:32;7.80;99.90
16301;DHT22;8258;51.020;4.248;2023-04-25T06:03:59;7.70;99.90
16301;DHT22;8258;51.020;4.248;2023-04-25T06:06:27;7.70;99.90
16301;DHT22;8258;51.020;4.248;2023-04-25T06:08:53;7.60;99.90
16301;DHT22;8258;51.020;4.248;2023-04-25T06:11:21;7.60;99.90
16301;DHT22;8258;51.020;4.248;2023-04-25T06:13:49;7.90;99.90
16301;DHT22;8258;51.020;4.248;2023-04-25T06:16:16;8.10;99.90
16301;DHT22;8258;51.020;4.248;2023-04-25T06:18:43;8.40;99.90
16301;DHT22;8258;51.020;4.248;2023-04-25T06:21:10;8.60;99.90
16301;DHT22;8258;51.020;4.248;2023-04-25T06:23:37;8.90;99.90
16301;DHT22;8258;51.020;4.248;2023-04-25T06:26:04;9.20;99.90
16301;DHT22;8258;51.020;4.248;2023-04-25T06:28:31;9.30;99.90
16301;DHT22;8258;51.020;4.248;2023-04-25T06:30:59;9.30;99.90
16301;DHT22;8258;51.020;4.248;2023-04-25T06:33:26;9.30;99.90
16301;DHT22;8258;51.020;4.248;2023-04-25T06:35:53;9.20;99.90
16301;DHT22;8258;51.020;4.248;2023-04-25T06:38:20;9.10;99.90
16301;DHT22;8258;51.020;4.248;2023-04-25T06:40:47;9.00;99.90
16301;DHT22;8258;51.020;4.248;2023-04-25T06:43:14;8.90;99.90
16301;DHT22;8258;51.020;4.248;2023-04-25T06:45:41;8.80;99.90
16301;DHT22;8258;51.020;4.248;2023-04-25T06:48:09;8.80;99.90
16301;DHT22;8258;51.020;4.248;2023-04-25T06:50:36;8.90;99.90
16301;DHT22;8258;51.020;4.248;2023-04-25T06:53:03;8.70;99.90
16301;DHT22;8258;51.020;4.248;2023-04-25T06:55:30;8.70;99.90
16301;DHT22;8258;51.020;4.248;2023-04-25T06:57:57;8.70;99.90
16301;DHT22;8258;51.020;4.248;2023-04-25T07:00:24;8.70;99.90
16301;DHT22;8258;51.020;4.248;2023-04-25T07:02:51;8.70;99.90
16301;DHT22;8258;51.020;4.248;2023-04-25T07:05:19;8.80;99.90
16301;DHT22;8258;51.020;4.248;2023-04-25T07:07:46;9.00;99.90
16301;DHT22;8258;51.020;4.248;2023-04-25T07:10:13;9.00;99.90
16301;DHT22;8258;51.020;4.248;2023-04-25T07:12:40;9.00;99.90
16301;DHT22;8258;51.020;4.248;2023-04-25T07:15:08;9.10;99.90
16301;DHT22;8258;51.020;4.248;2023-04-25T07:17:36;9.30;99.90
16301;DHT22;8258;51.020;4.248;2023-04-25T07:20:03;9.40;99.90
16301;DHT22;8258;51.020;4.248;2023-04-25T07:22:32;9.60;99.90
16301;DHT22;8258;51.020;4.248;2023-04-25T07:24:59;9.60;99.90
16301;DHT22;8258;51.020;4.248;2023-04-25T07:27:26;9.60;99.90
16301;DHT22;8258;51.020;4.248;2023-04-25T07:29:53;9.60;99.90
16301;DHT22;8258;51.020;4.248;2023-04-25T07:32:20;9.60;99.90
16301;DHT22;8258;51.020;4.248;2023-04-25T07:34:47;9.90;99.90
16301;DHT22;8258;51.020;4.248;2023-04-25T07:37:14;9.80;99.90
16301;DHT22;8258;51.020;4.248;2023-04-25T07:39:42;10.10;99.90
16301;DHT22;8258;51.020;4.248;2023-04-25T07:42:11;10.40;99.90
16301;DHT22;8258;51.020;4.248;2023-04-25T07:44:38;11.00;99.90
16301;DHT22;8258;51.020;4.248;2023-04-25T07:47:05;11.40;99.90
16301;DHT22;8258;51.020;4.248;2023-04-25T07:49:33;12.40;99.90
16301;DHT22;8258;51.020;4.248;2023-04-25T07:52:01;14.00;99.90
16301;DHT22;8258;51.020;4.248;2023-04-25T07:54:28;14.60;99.90
16301;DHT22;8258;51.020;4.248;2023-04-25T07:56:57;14.30;99.90
16301;DHT22;8258;51.020;4.248;2023-04-25T07:59:24;13.80;99.90
16301;DHT22;8258;51.020;4.248;2023-04-25T08:01:51;13.50;99.90
16301;DHT22;8258;51.020;4.248;2023-04-25T08:04:18;12.10;99.90
16301;DHT22;8258;51.020;4.248;2023-04-25T08:06:45;12.20;99.90
16301;DHT22;8258;51.020;4.248;2023-04-25T08:09:12;12.10;99.90
16301;DHT22;8258;51.020;4.248;2023-04-25T08:11:39;12.20;99.90
16301;DHT22;8258;51.020;4.248;2023-04-25T08:14:07;12.00;99.90
16301;DHT22;8258;51.020;4.248;2023-04-25T08:16:34;12.20;99.90
16301;DHT22;8258;51.020;4.248;2023-04-25T08:19:01;13.90;99.90
16301;DHT22;8258;51.020;4.248;2023-04-25T08:21:28;14.90;99.90
16301;DHT22;8258;51.020;4.248;2023-04-25T08:23:55;15.80;99.90
16301;DHT22;8258;51.020;4.248;2023-04-25T08:26:23;15.90;99.90
16301;DHT22;8258;51.020;4.248;2023-04-25T08:28:50;16.30;99.50
16301;DHT22;8258;51.020;4.248;2023-04-25T08:31:19;16.30;94.60
16301;DHT22;8258;51.020;4.248;2023-04-25T08:33:46;14.70;97.00
16301;DHT22;8258;51.020;4.248;2023-04-25T08:36:13;13.40;99.90
16301;DHT22;8258;51.020;4.248;2023-04-25T08:38:40;12.60;99.90
16301;DHT22;8258;51.020;4.248;2023-04-25T08:41:07;12.00;99.90
16301;DHT22;8258;51.020;4.248;2023-04-25T08:43:35;11.70;99.90
16301;DHT22;8258;51.020;4.248;2023-04-25T08:46:02;11.50;99.90
16301;DHT22;8258;51.020;4.248;2023-04-25T08:48:32;11.20;99.90
16301;DHT22;8258;51.020;4.248;2023-04-25T08:51:01;10.90;99.90
16301;DHT22;8258;51.020;4.248;2023-04-25T08:53:31;10.50;99.90
16301;DHT22;8258;51.020;4.248;2023-04-25T08:56:01;10.50;99.90
16301;DHT22;8258;51.020;4.248;2023-04-25T08:58:28;11.20;99.90
16301;DHT22;8258;51.020;4.248;2023-04-25T09:00:55;11.70;99.90
16301;DHT22;8258;51.020;4.248;2023-04-25T09:03:22;11.90;99.90
16301;DHT22;8258;51.020;4.248;2023-04-25T09:05:51;12.10;99.90
16301;DHT22;8258;51.020;4.248;2023-04-25T09:08:18;12.30;99.90
16301;DHT22;8258;51.020;4.248;2023-04-25T09:10:45;12.50;99.90
16301;DHT22;8258;51.020;4.248;2023-04-25T09:13:13;12.60;99.90
16301;DHT22;8258;51.020;4.248;2023-04-25T09:15:50;12.60;99.90
16301;DHT22;8258;51.020;4.248;2023-04-25T09:18:28;13.00;99.90
16301;DHT22;8258;51.020;4.248;2023-04-25T09:20:58;13.30;99.90
16301;DHT22;8258;51.020;4.248;2023-04-25T09:23:31;13.60;99.90
16301;DHT22;8258;51.020;4.248;2023-04-25T09:26:07;13.80;99.90
16301;DHT22;8258;51.020;4.248;2023-04-25T09:28:34;14.90;99.90
16301;DHT22;8258;51.020;4.248;2023-04-25T09:31:03;14.90;99.90
16301;DHT22;8258;51.020;4.248;2023-04-25T09:33:31;14.50;99.90
16301;DHT22;8258;51.020;4.248;2023-04-25T09:36:04;14.20;99.90
16301;DHT22;8258;51.020;4.248;2023-04-25T09:38:32;15.00;99.90
16301;DHT22;8258;51.020;4.248;2023-04-25T09:40:59;17.20;97.50
16301;DHT22;8258;51.020;4.248;2023-04-25T09:43:27;18.30;95.20
16301;DHT22;8258;51.020;4.248;2023-04-25T09:45:54;19.20;87.80
16301;DHT22;8258;51.020;4.248;2023-04-25T09:48:26;19.80;81.70
16301;DHT22;8258;51.020;4.248;2023-04-25T09:51:16;20.20;81.90
16301;DHT22;8258;51.020;4.248;2023-04-25T09:53:45;19.20;73.90
16301;DHT22;8258;51.020;4.248;2023-04-25T09:56:15;18.10;77.60
16301;DHT22;8258;51.020;4.248;2023-04-25T09:58:44;16.60;86.10
16301;DHT22;8258;51.020;4.248;2023-04-25T10:01:11;15.60;89.60
16301;DHT22;8258;51.020;4.248;2023-04-25T10:03:39;15.10;92.70
16301;DHT22;8258;51.020;4.248;2023-04-25T10:06:09;14.80;95.50
16301;DHT22;8258;51.020;4.248;2023-04-25T10:08:40;14.40;95.70
16301;DHT22;8258;51.020;4.248;2023-04-25T10:11:08;15.20;97.80
16301;DHT22;8258;51.020;4.248;2023-04-25T10:13:36;15.50;94.90
16301;DHT22;8258;51.020;4.248;2023-04-25T10:16:04;14.70;94.30
16301;DHT22;8258;51.020;4.248;2023-04-25T10:18:32;14.30;97.30
16301;DHT22;8258;51.020;4.248;2023-04-25T10:21:01;14.60;95.80
16301;DHT22;8258;51.020;4.248;2023-04-25T10:23:29;14.70;98.50
16301;DHT22;8258;51.020;4.248;2023-04-25T10:25:58;14.10;99.90
16301;DHT22;8258;51.020;4.248;2023-04-25T10:28:26;13.80;99.90
16301;DHT22;8258;51.020;4.248;2023-04-25T10:30:57;12.70;99.90
16301;DHT22;8258;51.020;4.248;2023-04-25T10:33:32;11.40;99.90
16301;DHT22;8258;51.020;4.248;2023-04-25T10:36:09;10.70;99.90
16301;DHT22;8258;51.020;4.248;2023-04-25T10:38:36;10.60;99.90
16301;DHT22;8258;51.020;4.248;2023-04-25T10:41:07;10.70;99.90
16301;DHT22;8258;51.020;4.248;2023-04-25T10:43:38;10.50;99.90
16301;DHT22;8258;51.020;4.248;2023-04-25T10:46:19;10.60;99.90
16301;DHT22;8258;51.020;4.248;2023-04-25T10:48:50;10.60;99.90
16301;DHT22;8258;51.020;4.248;2023-04-25T10:51:19;10.60;99.90
16301;DHT22;8258;51.020;4.248;2023-04-25T10:53:47;10.90;99.90
16301;DHT22;8258;51.020;4.248;2023-04-25T10:56:26;11.20;99.90
16301;DHT22;8258;51.020;4.248;2023-04-25T10:59:04;11.60;99.90
16301;DHT22;8258;51.020;4.248;2023-04-25T11:01:37;12.00;99.90
16301;DHT22;8258;51.020;4.248;2023-04-25T11:04:04;12.50;99.90
16301;DHT22;8258;51.020;4.248;2023-04-25T11:06:45;13.00;99.90
16301;DHT22;8258;51.020;4.248;2023-04-25T11:09:14;13.10;99.90
16301;DHT22;8258;51.020;4.248;2023-04-25T11:11:42;14.10;99.90
16301;DHT22;8258;51.020;4.248;2023-04-25T11:14:09;14.60;99.90
16301;DHT22;8258;51.020;4.248;2023-04-25T11:16:36;15.30;99.90
16301;DHT22;8258;51.020;4.248;2023-04-25T11:19:03;16.30;99.90
16301;DHT22;8258;51.020;4.248;2023-04-25T11:21:30;17.00;99.90
16301;DHT22;8258;51.020;4.248;2023-04-25T11:23:59;17.70;98.90
16301;DHT22;8258;51.020;4.248;2023-04-25T11:26:26;18.60;93.80
16301;DHT22;8258;51.020;4.248;2023-04-25T11:28:58;18.40;88.70
16301;DHT22;8258;51.020;4.248;2023-04-25T11:31:26;17.70;88.10
16301;DHT22;8258;51.020;4.248;2023-04-25T11:33:53;16.60;90.00
16301;DHT22;8258;51.020;4.248;2023-04-25T11:36:22;14.70;94.00
16301;DHT22;8258;51.020;4.248;2023-04-25T11:38:49;14.00;94.50
16301;DHT22;8258;51.020;4.248;2023-04-25T11:41:17;13.90;99.80
16301;DHT22;8258;51.020;4.248;2023-04-25T11:43:44;14.00;96.80
16301;DHT22;8258;51.020;4.248;2023-04-25T11:46:12;14.40;95.50
16301;DHT22;8258;51.020;4.248;2023-04-25T11:48:39;16.40;86.90
16301;DHT22;8258;51.020;4.248;2023-04-25T11:51:06;17.70;76.20
16301;DHT22;8258;51.020;4.248;2023-04-25T11:53:34;19.20;72.40
16301;DHT22;8258;51.020;4.248;2023-04-25T11:56:01;20.20;72.90
16301;DHT22;8258;51.020;4.248;2023-04-25T11:58:28;20.80;63.80
16301;DHT22;8258;51.020;4.248;2023-04-25T12:00:56;20.10;51.60
16301;DHT22;8258;51.020;4.248;2023-04-25T12:03:26;17.70;53.40
16301;DHT22;8258;51.020;4.248;2023-04-25T12:06:02;16.50;59.60
16301;DHT22;8258;51.020;4.248;2023-04-25T12:08:31;16.10;65.20
16301;DHT22;8258;51.020;4.248;2023-04-25T12:10:58;15.30;72.00
16301;DHT22;8258;51.020;4.248;2023-04-25T12:13:26;15.40;74.90
16301;DHT22;8258;51.020;4.248;2023-04-25T12:15:54;14.60;90.20
16301;DHT22;8258;51.020;4.248;2023-04-25T12:18:23;14.30;94.50
16301;DHT22;8258;51.020;4.248;2023-04-25T12:20:54;15.20;97.40
16301;DHT22;8258;51.020;4.248;2023-04-25T12:23:25;15.80;91.20
16301;DHT22;8258;51.020;4.248;2023-04-25T12:25:53;17.10;90.30
16301;DHT22;8258;51.020;4.248;2023-04-25T12:28:22;19.10;73.30
16301;DHT22;8258;51.020;4.248;2023-04-25T12:30:57;19.40;66.20
16301;DHT22;8258;51.020;4.248;2023-04-25T12:33:27;19.60;64.20
16301;DHT22;8258;51.020;4.248;2023-04-25T12:35:56;20.70;62.40
16301;DHT22;8258;51.020;4.248;2023-04-25T12:38:25;20.50;58.80
16301;DHT22;8258;51.020;4.248;2023-04-25T12:40:53;20.10;60.40
16301;DHT22;8258;51.020;4.248;2023-04-25T12:43:20;19.70;58.30
16301;DHT22;8258;51.020;4.248;2023-04-25T12:45:48;18.80;62.40
16301;DHT22;8258;51.020;4.248;2023-04-25T12:48:16;19.00;63.10
16301;DHT22;8258;51.020;4.248;2023-04-25T12:50:43;20.00;58.90
16301;DHT22;8258;51.020;4.248;2023-04-25T12:53:11;21.00;54.20
16301;DHT22;8258;51.020;4.248;2023-04-25T12:55:38;21.70;48.80
16301;DHT22;8258;51.020;4.248;2023-04-25T12:58:05;21.70;45.70
16301;DHT22;8258;51.020;4.248;2023-04-25T13:00:33;22.00;50.20
16301;DHT22;8258;51.020;4.248;2023-04-25T13:03:00;22.40;48.30
16301;DHT22;8258;51.020;4.248;2023-04-25T13:05:27;22.20;44.00
16301;DHT22;8258;51.020;4.248;2023-04-25T13:07:55;18.80;55.60
16301;DHT22;8258;51.020;4.248;2023-04-25T13:10:24;17.50;63.20
16301;DHT22;8258;51.020;4.248;2023-04-25T13:12:51;16.30;67.20
16301;DHT22;8258;51.020;4.248;2023-04-25T13:15:18;15.70;73.40
16301;DHT22;8258;51.020;4.248;2023-04-25T13:17:45;15.00;77.60
16301;DHT22;8258;51.020;4.248;2023-04-25T13:20:12;14.70;82.70
16301;DHT22;8258;51.020;4.248;2023-04-25T13:22:42;14.50;83.80
16301;DHT22;8258;51.020;4.248;2023-04-25T13:25:11;14.20;86.30
16301;DHT22;8258;51.020;4.248;2023-04-25T13:27:39;14.30;87.70
16301;DHT22;8258;51.020;4.248;2023-04-25T13:30:07;14.60;85.00
16301;DHT22;8258;51.020;4.248;2023-04-25T13:32:34;15.50;85.20
16301;DHT22;8258;51.020;4.248;2023-04-25T13:35:03;17.20;73.90
16301;DHT22;8258;51.020;4.248;2023-04-25T13:37:30;18.50;69.70
16301;DHT22;8258;51.020;4.248;2023-04-25T13:39:59;19.50;60.00
16301;DHT22;8258;51.020;4.248;2023-04-25T13:42:26;20.90;56.90
16301;DHT22;8258;51.020;4.248;2023-04-25T13:44:55;20.70;53.60
16301;DHT22;8258;51.020;4.248;2023-04-25T13:47:22;20.90;55.60
16301;DHT22;8258;51.020;4.248;2023-04-25T13:49:49;20.50;54.80
16301;DHT22;8258;51.020;4.248;2023-04-25T13:52:16;19.70;54.20
16301;DHT22;8258;51.020;4.248;2023-04-25T13:54:43;20.70;54.40
16301;DHT22;8258;51.020;4.248;2023-04-25T13:57:10;21.80;54.20
16301;DHT22;8258;51.020;4.248;2023-04-25T13:59:37;21.60;48.10
16301;DHT22;8258;51.020;4.248;2023-04-25T14:02:06;20.40;53.90
16301;DHT22;8258;51.020;4.248;2023-04-25T14:04:33;20.90;53.20
16301;DHT22;8258;51.020;4.248;2023-04-25T14:07:01;18.80;53.80
16301;DHT22;8258;51.020;4.248;2023-04-25T14:09:29;16.60;60.10
16301;DHT22;8258;51.020;4.248;2023-04-25T14:11:56;16.10;67.30
16301;DHT22;8258;51.020;4.248;2023-04-25T14:14:23;16.40;67.70
16301;DHT22;8258;51.020;4.248;2023-04-25T14:16:51;16.60;68.20
16301;DHT22;8258;51.020;4.248;2023-04-25T14:19:21;17.70;64.70
16301;DHT22;8258;51.020;4.248;2023-04-25T14:21:48;19.10;61.00
16301;DHT22;8258;51.020;4.248;2023-04-25T14:24:15;20.40;57.60
16301;DHT22;8258;51.020;4.248;2023-04-25T14:26:43;21.00;53.20
16301;DHT22;8258;51.020;4.248;2023-04-25T14:29:10;20.50;51.40
16301;DHT22;8258;51.020;4.248;2023-04-25T14:31:38;20.00;53.30
16301;DHT22;8258;51.020;4.248;2023-04-25T14:34:07;20.40;53.10
16301;DHT22;8258;51.020;4.248;2023-04-25T14:36:35;20.20;52.20
16301;DHT22;8258;51.020;4.248;2023-04-25T14:39:03;18.70;55.60
16301;DHT22;8258;51.020;4.248;2023-04-25T14:41:30;17.10;58.40
16301;DHT22;8258;51.020;4.248;2023-04-25T14:43:57;16.40;63.50
16301;DHT22;8258;51.020;4.248;2023-04-25T14:46:24;16.50;63.80
16301;DHT22;8258;51.020;4.248;2023-04-25T14:48:51;15.90;63.10
16301;DHT22;8258;51.020;4.248;2023-04-25T14:51:18;15.80;65.20
16301;DHT22;8258;51.020;4.248;2023-04-25T14:53:46;16.00;61.50
16301;DHT22;8258;51.020;4.248;2023-04-25T14:56:13;16.70;67.30
16301;DHT22;8258;51.020;4.248;2023-04-25T14:58:40;18.90;59.40
16301;DHT22;8258;51.020;4.248;2023-04-25T15:01:07;20.00;55.40
16301;DHT22;8258;51.020;4.248;2023-04-25T15:03:34;20.90;51.80
16301;DHT22;8258;51.020;4.248;2023-04-25T15:06:01;19.80;52.90
16301;DHT22;8258;51.020;4.248;2023-04-25T15:08:28;17.80;58.80
16301;DHT22;8258;51.020;4.248;2023-04-25T15:10:56;16.50;61.70
16301;DHT22;8258;51.020;4.248;2023-04-25T15:13:24;15.60;67.80
16301;DHT22;8258;51.020;4.248;2023-04-25T15:15:51;16.10;69.40
16301;DHT22;8258;51.020;4.248;2023-04-25T15:18:20;18.60;59.50
16301;DHT22;8258;51.020;4.248;2023-04-25T15:20:49;19.80;54.60
16301;DHT22;8258;51.020;4.248;2023-04-25T15:23:17;17.90;56.60
16301;DHT22;8258;51.020;4.248;2023-04-25T15:25:44;16.30;60.20
16301;DHT22;8258;51.020;4.248;2023-04-25T15:28:13;15.80;66.00
16301;DHT22;8258;51.020;4.248;2023-04-25T15:30:41;17.30;61.30
16301;DHT22;8258;51.020;4.248;2023-04-25T15:33:08;18.00;57.30
16301;DHT22;8258;51.020;4.248;2023-04-25T15:35:35;17.70;58.00
16301;DHT22;8258;51.020;4.248;2023-04-25T15:38:03;17.90;59.70
16301;DHT22;8258;51.020;4.248;2023-04-25T15:40:30;19.20;56.70
16301;DHT22;8258;51.020;4.248;2023-04-25T15:42:57;20.60;55.30
16301;DHT22;8258;51.020;4.248;2023-04-25T15:45:26;20.40;50.60
16301;DHT22;8258;51.020;4.248;2023-04-25T15:47:55;19.60;53.50
16301;DHT22;8258;51.020;4.248;2023-04-25T15:50:22;19.60;53.20
16301;DHT22;8258;51.020;4.248;2023-04-25T15:52:50;19.10;52.20
16301;DHT22;8258;51.020;4.248;2023-04-25T15:55:18;19.40;52.30